createdAt,value
2022-08-03T00:02:20.544Z,19.30
2022-08-03T00:04:48.497Z,19.26
2022-08-03T00:07:17.107Z,19.25
2022-08-03T00:09:45.124Z,19.27
2022-08-03T00:12:13.312Z,19.29
2022-08-03T00:14:41.478Z,19.27
2022-08-03T00:17:09.832Z,19.27
2022-08-03T00:19:37.750Z,19.27
2022-08-03T00:22:05.630Z,19.25
2022-08-03T00:24:36.262Z,19.25
2022-08-03T00:27:04.257Z,19.27
2022-08-03T00:29:32.284Z,19.25
2022-08-03T00:32:00.677Z,19.23
2022-08-03T00:34:57.155Z,19.20
2022-08-03T00:37:16.999Z,19.17
2022-08-03T00:39:47.329Z,19.13
2022-08-03T00:42:16.263Z,19.07
2022-08-03T00:44:45.646Z,19.04
2022-08-03T00:47:13.610Z,19.01
2022-08-03T00:49:43.011Z,18.98
2022-08-03T00:52:13.051Z,18.95
2022-08-03T00:54:41.136Z,18.93
2022-08-03T00:57:09.322Z,18.93
2022-08-03T00:59:38.630Z,18.93
2022-08-03T01:02:06.876Z,18.92
2022-08-03T01:04:34.882Z,18.93
2022-08-03T01:07:25.342Z,18.91
2022-08-03T01:10:24.824Z,18.90
2022-08-03T01:12:59.681Z,18.87
2022-08-03T01:15:45.354Z,18.87
2022-08-03T01:18:18.817Z,18.90
2022-08-03T01:20:53.509Z,18.86
2022-08-03T01:23:42.929Z,18.80
2022-08-03T01:26:29.035Z,18.80
2022-08-03T01:29:03.804Z,18.82
2022-08-03T01:32:53.220Z,18.82
2022-08-03T01:34:36.939Z,18.85
2022-08-03T01:37:09.424Z,18.84
2022-08-03T01:39:39.933Z,18.83
2022-08-03T01:42:11.539Z,18.83
2022-08-03T01:44:43.244Z,18.82
2022-08-03T01:47:12.799Z,18.79
2022-08-03T01:49:45.753Z,18.67
2022-08-03T01:52:18.804Z,18.57
2022-08-03T01:54:50.106Z,18.56
2022-08-03T01:57:20.010Z,18.63
2022-08-03T01:59:51.134Z,18.66
2022-08-03T02:02:32.652Z,18.67
2022-08-03T02:05:05.545Z,18.63
2022-08-03T02:07:40.996Z,18.56
2022-08-03T02:10:11.693Z,18.46
2022-08-03T02:12:40.602Z,18.43
2022-08-03T02:15:09.864Z,18.43
2022-08-03T02:17:40.352Z,18.39
2022-08-03T02:20:11.167Z,18.35
2022-08-03T02:22:44.648Z,18.30
2022-08-03T02:25:14.791Z,18.22
2022-08-03T02:27:56.796Z,18.19
2022-08-03T02:30:32.818Z,18.24
2022-08-03T02:33:02.151Z,18.24
2022-08-03T02:35:31.270Z,18.19
2022-08-03T02:38:04.422Z,18.19
2022-08-03T02:40:33.744Z,18.18
2022-08-03T02:43:09.274Z,18.18
2022-08-03T02:45:45.552Z,18.19
2022-08-03T02:48:20.511Z,18.21
2022-08-03T02:50:49.768Z,18.25
2022-08-03T02:53:19.308Z,18.28
2022-08-03T02:55:49.291Z,18.25
2022-08-03T02:58:24.282Z,18.26
2022-08-03T03:00:53.756Z,18.34
2022-08-03T03:03:22.764Z,18.33
2022-08-03T03:05:56.433Z,18.31
2022-08-03T03:08:28.692Z,18.28
2022-08-03T03:11:00.988Z,18.26
2022-08-03T03:13:31.149Z,18.22
2022-08-03T03:16:02.688Z,18.20
2022-08-03T03:18:33.309Z,18.18
2022-08-03T03:21:04.523Z,18.15
2022-08-03T03:23:36.759Z,18.16
2022-08-03T03:26:05.649Z,18.17
2022-08-03T03:28:37.045Z,18.19
2022-08-03T03:31:07.012Z,18.20
2022-08-03T03:33:35.270Z,18.21
2022-08-03T03:36:04.880Z,18.22
2022-08-03T03:38:33.707Z,18.26
2022-08-03T03:41:02.301Z,18.30
2022-08-03T03:43:30.563Z,18.32
2022-08-03T03:45:58.882Z,18.35
2022-08-03T03:48:26.930Z,18.38
2022-08-03T03:50:54.979Z,18.43
2022-08-03T03:53:23.011Z,18.45
2022-08-03T03:55:58.975Z,18.48
2022-08-03T03:58:32.610Z,18.51
2022-08-03T04:01:01.751Z,18.53
2022-08-03T04:03:29.827Z,18.59
2022-08-03T04:06:17.011Z,18.64
2022-08-03T04:09:04.669Z,18.70
2022-08-03T04:11:38.643Z,18.79
2022-08-03T04:14:20.324Z,18.89
2022-08-03T04:17:01.887Z,18.97
2022-08-03T04:19:37.952Z,19.06
2022-08-03T04:22:12.626Z,19.12
2022-08-03T04:24:50.988Z,19.15
2022-08-03T04:27:23.509Z,19.18
2022-08-03T04:29:55.422Z,19.19
2022-08-03T04:32:26.467Z,19.21
2022-08-03T04:34:54.683Z,19.21
2022-08-03T04:37:39.592Z,19.27
2022-08-03T04:40:13.443Z,19.40
2022-08-03T04:42:43.536Z,19.50
2022-08-03T04:45:16.626Z,19.55
2022-08-03T04:47:45.743Z,19.55
2022-08-03T04:50:17.023Z,19.56
2022-08-03T04:53:08.256Z,19.63
2022-08-03T04:55:37.411Z,19.71
2022-08-03T04:58:06.458Z,19.74
2022-08-03T05:00:34.761Z,19.73
2022-08-03T05:03:02.673Z,19.73
2022-08-03T05:05:34.637Z,19.80
2022-08-03T05:08:27.684Z,19.86
2022-08-03T05:10:59.017Z,19.87
2022-08-03T05:13:27.695Z,19.89
2022-08-03T05:15:55.869Z,19.96
2022-08-03T05:18:23.970Z,20.03
2022-08-03T05:20:51.874Z,20.13
2022-08-03T05:23:20.187Z,20.20
2022-08-03T05:25:49.889Z,20.25
2022-08-03T05:28:18.175Z,20.31
2022-08-03T05:30:46.549Z,20.38
2022-08-03T05:33:14.853Z,20.43
2022-08-03T05:36:02.452Z,20.53
2022-08-03T05:38:34.778Z,20.63
2022-08-03T05:41:22.132Z,20.70
2022-08-03T05:43:53.963Z,20.73
2022-08-03T05:46:23.240Z,20.70
2022-08-03T05:48:51.544Z,20.65
2022-08-03T05:51:19.497Z,20.69
2022-08-03T05:53:47.420Z,20.79
2022-08-03T05:56:16.720Z,20.86
2022-08-03T05:58:47.844Z,20.88
2022-08-03T06:01:17.286Z,20.91
2022-08-03T06:03:46.432Z,20.91
2022-08-03T06:06:15.225Z,20.93
2022-08-03T06:08:44.529Z,20.95
2022-08-03T06:11:13.315Z,20.97
2022-08-03T06:13:41.754Z,20.98
2022-08-03T06:16:10.637Z,21.06
2022-08-03T06:18:39.034Z,21.14
2022-08-03T06:21:14.276Z,21.20
2022-08-03T06:23:52.800Z,21.27
2022-08-03T06:26:24.990Z,21.35
2022-08-03T06:28:54.484Z,21.45
2022-08-03T06:31:32.388Z,21.52
2022-08-03T06:34:33.936Z,21.60
2022-08-03T06:36:52.585Z,21.66
2022-08-03T06:39:23.619Z,21.71
2022-08-03T06:41:53.741Z,21.78
2022-08-03T06:44:21.613Z,21.86
2022-08-03T06:46:49.687Z,21.94
2022-08-03T06:49:17.710Z,22.00
2022-08-03T06:52:03.491Z,22.09
2022-08-03T06:54:33.917Z,22.17
2022-08-03T06:57:01.814Z,22.25
2022-08-03T07:00:09.729Z,22.33
2022-08-03T07:02:21.156Z,22.42
2022-08-03T07:04:49.549Z,22.57
2022-08-03T07:07:17.996Z,22.69
2022-08-03T07:09:55.772Z,22.81
2022-08-03T07:12:28.446Z,22.93
2022-08-03T07:15:02.507Z,23.02
2022-08-03T07:17:33.701Z,23.08
2022-08-03T07:20:04.172Z,23.15
2022-08-03T07:22:32.195Z,23.23
2022-08-03T07:25:00.329Z,23.31
2022-08-03T07:27:29.711Z,23.37
2022-08-03T07:29:58.740Z,23.44
2022-08-03T07:32:28.720Z,23.57
2022-08-03T07:35:00.573Z,23.76
2022-08-03T07:37:30.390Z,23.89
2022-08-03T07:39:58.728Z,23.96
2022-08-03T07:42:30.465Z,24.05
2022-08-03T07:45:01.767Z,24.17
2022-08-03T07:47:35.317Z,24.22
2022-08-03T07:50:06.451Z,24.31
2022-08-03T07:52:49.642Z,24.49
2022-08-03T07:55:28.775Z,24.68
2022-08-03T07:58:02.467Z,24.85
2022-08-03T08:00:30.570Z,24.95
2022-08-03T08:02:58.522Z,25.06
2022-08-03T08:05:26.544Z,25.17
2022-08-03T08:07:54.472Z,25.26
2022-08-03T08:10:22.824Z,25.32
2022-08-03T08:12:50.884Z,25.33
2022-08-03T08:15:19.091Z,25.30
2022-08-03T08:17:53.624Z,25.27
2022-08-03T08:20:30.843Z,25.19
2022-08-03T08:23:08.855Z,25.12
2022-08-03T08:25:54.380Z,25.05
2022-08-03T08:28:32.916Z,25.02
2022-08-03T08:31:02.421Z,25.00
2022-08-03T08:33:42.506Z,24.99
2022-08-03T08:36:18.737Z,24.94
2022-08-03T08:38:47.245Z,24.97
2022-08-03T08:41:15.634Z,25.02
2022-08-03T08:43:43.828Z,25.10
2022-08-03T08:46:23.339Z,25.21
2022-08-03T08:48:53.963Z,25.39
2022-08-03T08:51:51.024Z,25.54
2022-08-03T08:54:17.501Z,25.69
2022-08-03T08:56:45.532Z,25.79
2022-08-03T08:59:13.681Z,25.83
2022-08-03T09:01:41.557Z,25.92
2022-08-03T09:04:09.786Z,26.08
2022-08-03T09:06:37.777Z,26.29
2022-08-03T09:09:07.223Z,26.53
2022-08-03T09:11:51.487Z,26.88
2022-08-03T09:14:36.819Z,27.42
2022-08-03T09:17:10.224Z,27.59
2022-08-03T09:20:05.924Z,27.68
2022-08-03T09:22:34.205Z,27.79
2022-08-03T09:27:53.559Z,27.95
2022-08-03T09:30:34.177Z,28.19
2022-08-03T09:33:12.002Z,29.00
2022-08-03T09:35:53.545Z,30.34
2022-08-03T09:38:24.289Z,31.92
2022-08-03T09:40:58.840Z,33.03
2022-08-03T09:43:28.297Z,34.10
2022-08-03T09:46:07.639Z,35.15
2022-08-03T09:48:36.955Z,36.02
2022-08-03T09:51:13.135Z,36.92
2022-08-03T09:53:59.068Z,37.45
2022-08-03T09:56:42.368Z,36.63
2022-08-03T09:59:12.403Z,36.07
2022-08-03T10:01:41.993Z,36.75
2022-08-03T10:04:15.220Z,37.70
2022-08-03T10:07:02.824Z,38.44
2022-08-03T10:09:31.053Z,38.44
2022-08-03T10:12:08.120Z,38.11
2022-08-03T10:14:38.853Z,37.66
2022-08-03T10:17:06.876Z,38.40
2022-08-03T10:19:34.826Z,39.25
2022-08-03T10:22:23.617Z,39.94
2022-08-03T10:24:59.629Z,40.41
2022-08-03T10:27:32.600Z,41.08
2022-08-03T10:30:05.245Z,41.57
2022-08-03T10:32:43.640Z,41.67
2022-08-03T10:35:20.137Z,41.76
2022-08-03T10:37:59.923Z,42.09
2022-08-03T10:40:49.348Z,42.56
2022-08-03T10:43:45.916Z,42.90
2022-08-03T10:46:16.715Z,43.21
2022-08-03T10:48:46.553Z,43.29
2022-08-03T10:51:15.135Z,43.50
2022-08-03T10:53:54.297Z,43.50
2022-08-03T10:56:51.450Z,43.43
2022-08-03T10:59:39.746Z,43.53
2022-08-03T11:02:10.623Z,43.63
2022-08-03T11:04:38.504Z,42.95
2022-08-03T11:07:24.672Z,41.77
2022-08-03T11:09:56.670Z,40.59
2022-08-03T11:12:31.228Z,39.59
2022-08-03T11:15:07.549Z,38.66
2022-08-03T11:17:46.881Z,37.78
2022-08-03T11:20:44.790Z,36.77
2022-08-03T11:23:13.476Z,36.02
2022-08-03T11:26:12.739Z,35.62
2022-08-03T11:28:42.631Z,35.07
2022-08-03T11:31:49.343Z,34.64
2022-08-03T11:34:18.589Z,33.94
2022-08-03T11:37:29.975Z,33.62
2022-08-03T11:39:59.536Z,33.27
2022-08-03T11:42:29.159Z,32.95
2022-08-03T11:44:58.947Z,32.51
2022-08-03T11:47:29.851Z,32.14
2022-08-03T11:50:02.088Z,31.89
2022-08-03T11:52:39.162Z,31.69
2022-08-03T11:55:12.562Z,31.52
2022-08-03T11:59:01.706Z,31.39
2022-08-03T12:00:31.654Z,31.18
2022-08-03T12:03:01.715Z,30.93
2022-08-03T12:05:52.007Z,30.83
2022-08-03T12:08:34.125Z,30.64
2022-08-03T12:11:06.699Z,30.50
2022-08-03T12:14:35.634Z,30.38
2022-08-03T12:16:29.042Z,30.27
2022-08-03T12:19:03.203Z,30.19
2022-08-03T12:21:31.698Z,30.08
2022-08-03T12:24:05.226Z,30.02
2022-08-03T12:26:58.738Z,29.97
2022-08-03T12:29:28.064Z,29.98
2022-08-03T12:31:56.424Z,29.93
2022-08-03T12:34:24.833Z,29.90
2022-08-03T12:36:59.700Z,29.87
2022-08-03T12:39:31.018Z,29.88
2022-08-03T12:41:59.595Z,29.85
2022-08-03T12:44:32.839Z,29.75
2022-08-03T12:47:02.687Z,29.70
2022-08-03T12:49:54.190Z,29.61
2022-08-03T12:52:22.951Z,29.56
2022-08-03T12:54:59.604Z,29.51
2022-08-03T12:57:41.486Z,29.46
2022-08-03T13:00:28.813Z,29.43
2022-08-03T13:05:55.937Z,29.30
2022-08-03T13:08:25.739Z,29.30
2022-08-03T13:10:53.644Z,29.28
2022-08-03T13:13:39.909Z,29.10
2022-08-03T13:16:07.768Z,29.05
2022-08-03T13:18:35.630Z,29.12
2022-08-03T13:21:03.750Z,29.13
2022-08-03T13:23:31.596Z,29.13
2022-08-03T13:26:00.031Z,29.12
2022-08-03T13:28:27.908Z,29.02
2022-08-03T13:30:55.932Z,29.04
2022-08-03T13:33:25.351Z,29.08
2022-08-03T13:35:53.260Z,29.08
2022-08-03T13:38:21.667Z,29.09
2022-08-03T13:40:55.342Z,29.11
2022-08-03T13:43:24.118Z,29.14
2022-08-03T13:45:56.504Z,29.17
2022-08-03T13:48:37.407Z,29.21
2022-08-03T13:51:22.084Z,29.23
2022-08-03T13:53:52.540Z,29.22
2022-08-03T13:56:20.533Z,29.22
2022-08-03T13:58:48.514Z,29.24
2022-08-03T14:01:16.560Z,29.26
2022-08-03T14:03:44.630Z,29.26
2022-08-03T14:06:13.805Z,29.25
2022-08-03T14:08:41.779Z,29.27
2022-08-03T14:11:09.759Z,29.26
2022-08-03T14:13:38.302Z,29.24
2022-08-03T14:16:06.324Z,29.24
2022-08-03T14:18:38.062Z,29.20
2022-08-03T14:21:09.554Z,29.18
2022-08-03T14:23:38.432Z,29.17
2022-08-03T14:26:08.282Z,29.16
2022-08-03T14:28:36.477Z,29.16
2022-08-03T14:31:08.457Z,29.17
2022-08-03T14:33:43.557Z,29.12
2022-08-03T14:36:11.499Z,29.11
2022-08-03T14:38:39.375Z,29.11
2022-08-03T14:41:07.394Z,29.12
2022-08-03T14:43:40.264Z,29.08
2022-08-03T14:46:28.214Z,29.07
2022-08-03T14:50:30.252Z,29.04
2022-08-03T14:51:51.596Z,28.97
2022-08-03T14:54:23.102Z,28.88
2022-08-03T14:56:51.327Z,28.78
2022-08-03T14:59:19.274Z,28.73
2022-08-03T15:02:05.446Z,28.66
2022-08-03T15:04:35.104Z,28.60
2022-08-03T15:07:03.220Z,28.48
2022-08-03T15:09:31.430Z,28.41
2022-08-03T15:11:59.467Z,28.28
2022-08-03T15:14:28.459Z,28.12
2022-08-03T15:17:01.532Z,28.00
2022-08-03T15:20:02.916Z,27.93
2022-08-03T15:22:20.822Z,27.84
2022-08-03T15:24:53.938Z,27.78
2022-08-03T15:27:22.923Z,27.73
2022-08-03T15:30:08.785Z,27.72
2022-08-03T15:32:38.151Z,27.72
2022-08-03T15:35:06.317Z,27.62
2022-08-03T15:37:34.268Z,27.51
2022-08-03T15:40:02.458Z,27.45
2022-08-03T15:42:32.711Z,27.39
2022-08-03T15:45:00.692Z,27.33
2022-08-03T15:47:28.744Z,27.29
2022-08-03T15:49:56.757Z,27.29
2022-08-03T15:52:25.003Z,27.32
2022-08-03T15:54:52.863Z,27.35
2022-08-03T15:57:20.982Z,27.43
2022-08-03T15:59:49.506Z,27.49
2022-08-03T16:02:17.801Z,27.54
2022-08-03T16:04:45.803Z,27.57
2022-08-03T16:07:15.939Z,27.58
2022-08-03T16:09:44.383Z,27.65
2022-08-03T16:12:15.761Z,27.63
2022-08-03T16:14:54.009Z,27.56
2022-08-03T16:17:23.774Z,27.50
2022-08-03T16:19:54.905Z,27.49
2022-08-03T16:22:24.830Z,27.51
2022-08-03T16:24:56.139Z,27.52
2022-08-03T16:27:56.486Z,27.55
2022-08-03T16:30:16.700Z,27.59
2022-08-03T16:32:45.635Z,27.59
2022-08-03T16:35:19.429Z,27.56
2022-08-03T16:37:50.674Z,27.61
2022-08-03T16:40:26.196Z,27.62
2022-08-03T16:42:54.526Z,27.59
2022-08-03T16:45:22.806Z,27.58
2022-08-03T16:48:01.827Z,27.60
2022-08-03T16:50:36.305Z,27.61
2022-08-03T16:53:09.014Z,27.60
2022-08-03T16:55:48.854Z,27.55
2022-08-03T16:58:34.585Z,27.54
2022-08-03T17:01:22.216Z,27.53
2022-08-03T17:04:03.589Z,27.51
2022-08-03T17:06:45.009Z,27.50
2022-08-03T17:09:21.083Z,27.51
2022-08-03T17:11:50.588Z,27.50
2022-08-03T17:14:28.291Z,27.48
2022-08-03T17:17:01.615Z,27.42
2022-08-03T17:19:32.271Z,27.38
2022-08-03T17:22:04.909Z,27.38
2022-08-03T17:24:41.073Z,27.30
2022-08-03T17:27:23.179Z,27.25
2022-08-03T17:30:08.785Z,27.18
2022-08-03T17:32:42.397Z,27.12
2022-08-03T17:35:11.226Z,27.01
2022-08-03T17:37:57.677Z,26.89
2022-08-03T17:40:27.152Z,26.78
2022-08-03T17:42:59.931Z,26.68
2022-08-03T17:45:42.296Z,26.58
2022-08-03T17:48:18.645Z,26.48
2022-08-03T17:50:53.208Z,26.39
2022-08-03T17:53:28.357Z,26.29
2022-08-03T17:56:09.977Z,26.20
2022-08-03T17:59:50.747Z,26.13
2022-08-03T18:02:47.856Z,26.04
2022-08-03T18:05:18.869Z,25.92
2022-08-03T18:08:01.644Z,25.86
2022-08-03T18:10:35.656Z,25.78
2022-08-03T18:13:10.313Z,25.68
2022-08-03T18:15:57.719Z,25.59
2022-08-03T18:18:34.829Z,25.47
2022-08-03T18:21:09.228Z,25.39
2022-08-03T18:23:46.030Z,25.31
2022-08-03T18:26:18.996Z,25.24
2022-08-03T18:28:48.948Z,25.15
2022-08-03T18:31:19.013Z,25.06
2022-08-03T18:34:19.273Z,24.98
2022-08-03T18:36:57.161Z,24.88
2022-08-03T18:39:26.962Z,24.83
2022-08-03T18:41:54.918Z,24.75
2022-08-03T18:44:53.182Z,24.68
2022-08-03T18:47:50.867Z,24.62
2022-08-03T18:50:19.801Z,24.55
2022-08-03T18:53:02.952Z,24.50
2022-08-03T18:55:35.429Z,24.44
2022-08-03T18:58:15.800Z,24.37
2022-08-03T19:01:58.379Z,24.33
2022-08-03T19:04:11.622Z,24.27
2022-08-03T19:06:45.060Z,24.23
2022-08-03T19:09:32.095Z,24.16
2022-08-03T19:12:13.955Z,24.11
2022-08-03T19:15:00.295Z,24.05
2022-08-03T19:17:36.015Z,23.97
2022-08-03T19:20:09.218Z,23.92
2022-08-03T19:22:38.470Z,23.84
2022-08-03T19:25:12.009Z,23.76
2022-08-03T19:27:44.096Z,23.64
2022-08-03T19:30:32.532Z,23.64
2022-08-03T19:33:01.893Z,23.67
2022-08-03T19:35:52.238Z,23.62
2022-08-03T19:38:21.922Z,23.58
2022-08-03T19:41:03.522Z,23.54
2022-08-03T19:43:52.729Z,23.50
2022-08-03T19:46:30.035Z,23.42
2022-08-03T19:49:15.169Z,23.37
2022-08-03T19:52:01.960Z,23.27
2022-08-03T19:54:52.981Z,23.18
2022-08-03T19:57:27.368Z,23.13
2022-08-03T19:59:56.882Z,23.08
2022-08-03T20:02:26.416Z,23.04
2022-08-03T20:04:57.230Z,23.02
2022-08-03T20:07:33.315Z,23.00
2022-08-03T20:10:03.034Z,22.95
2022-08-03T20:12:39.254Z,22.91
2022-08-03T20:15:09.287Z,22.88
2022-08-03T20:17:55.501Z,22.85
2022-08-03T20:20:32.727Z,22.83
2022-08-03T20:23:07.133Z,22.82
2022-08-03T20:25:48.924Z,22.79
2022-08-03T20:28:31.935Z,22.78
2022-08-03T20:33:49.291Z,22.74
2022-08-03T20:36:18.893Z,22.68
2022-08-03T20:38:48.139Z,22.63
2022-08-03T20:41:17.611Z,22.62
2022-08-03T20:43:49.253Z,22.63
2022-08-03T20:46:30.889Z,22.55
2022-08-03T20:49:05.423Z,22.43
2022-08-03T20:51:50.242Z,22.34
2022-08-03T20:54:31.326Z,22.36
2022-08-03T20:57:04.301Z,22.41
2022-08-03T20:59:50.000Z,22.37
2022-08-03T21:02:29.618Z,22.32
2022-08-03T21:05:03.459Z,22.31
2022-08-03T21:08:05.228Z,22.30
2022-08-03T21:10:38.680Z,22.18
2022-08-03T21:13:12.112Z,22.77
2022-08-03T21:16:11.786Z,22.04
2022-08-03T21:18:47.371Z,21.90
2022-08-03T21:21:17.777Z,21.89
2022-08-03T21:23:52.927Z,21.94
2022-08-03T21:26:23.295Z,21.91
2022-08-03T21:28:53.734Z,21.87
2022-08-03T21:31:25.226Z,21.87
2022-08-03T21:34:11.982Z,21.83
2022-08-03T21:36:39.847Z,21.81
2022-08-03T21:39:10.519Z,21.81
2022-08-03T21:41:39.946Z,21.82
2022-08-03T21:44:10.260Z,21.84
2022-08-03T21:46:40.993Z,21.84
2022-08-03T21:50:04.750Z,21.85
2022-08-03T21:52:05.419Z,21.89
2022-08-03T21:54:43.469Z,21.91
2022-08-03T21:57:31.918Z,21.95
2022-08-03T22:00:14.634Z,21.97
2022-08-03T22:02:46.195Z,21.97
2022-08-03T22:05:29.041Z,21.96
2022-08-03T22:08:14.182Z,21.95
2022-08-03T22:10:47.326Z,21.95
2022-08-03T22:13:43.174Z,21.95
2022-08-03T22:16:06.572Z,21.96
2022-08-03T22:18:42.892Z,21.95
2022-08-03T22:21:13.523Z,21.96
2022-08-03T22:23:45.250Z,21.90
2022-08-03T22:26:35.239Z,21.88
2022-08-03T22:29:08.339Z,21.84
2022-08-03T22:31:58.641Z,21.82
2022-08-03T22:34:27.348Z,21.85
2022-08-03T22:37:00.694Z,21.84
2022-08-03T22:39:30.394Z,21.79
2022-08-03T22:41:59.218Z,21.77
2022-08-03T22:44:28.118Z,21.71
2022-08-03T22:46:56.955Z,21.64
2022-08-03T22:49:28.253Z,21.63
2022-08-03T22:51:56.480Z,21.59
2022-08-03T22:54:25.342Z,21.55
2022-08-03T22:56:53.236Z,21.55
2022-08-03T22:59:39.876Z,21.53
2022-08-03T23:02:21.132Z,21.51
2022-08-03T23:04:52.406Z,21.50
2022-08-03T23:07:27.663Z,21.49
2022-08-03T23:09:57.966Z,21.49
2022-08-03T23:12:29.638Z,21.48
2022-08-03T23:15:01.808Z,21.47
2022-08-03T23:17:33.985Z,21.43
2022-08-03T23:20:26.628Z,21.38
2022-08-03T23:22:54.881Z,21.33
2022-08-03T23:25:25.039Z,21.29
2022-08-03T23:28:05.449Z,21.23
2022-08-03T23:30:37.332Z,21.16
2022-08-03T23:33:06.837Z,21.14
2022-08-03T23:36:20.205Z,21.14
2022-08-03T23:38:44.167Z,21.16
2022-08-03T23:41:13.670Z,21.17
2022-08-03T23:43:50.737Z,21.17
2022-08-03T23:46:21.883Z,21.13
2022-08-03T23:48:51.252Z,21.11
2022-08-03T23:51:27.734Z,21.08
2022-08-03T23:54:03.992Z,21.02
2022-08-03T23:56:41.362Z,20.97
2022-08-03T23:59:24.287Z,20.92
